createdAt,value
2018-06-24T00:00:25.300Z,7.30
2018-06-24T00:01:25.338Z,7.00
2018-06-24T00:02:25.375Z,6.90
2018-06-24T00:03:25.411Z,8.60
2018-06-24T00:04:25.456Z,5.40
2018-06-24T00:05:25.488Z,7.80
2018-06-24T00:06:25.527Z,8.20
2018-06-24T00:07:25.563Z,9.00
2018-06-24T00:08:25.601Z,8.40
2018-06-24T00:09:25.646Z,15.10
2018-06-24T00:10:25.785Z,10.90
2018-06-24T00:11:25.714Z,17.80
2018-06-24T00:12:25.751Z,27.60
2018-06-24T00:13:25.788Z,33.80
2018-06-24T00:14:25.830Z,30.50
2018-06-24T00:15:25.897Z,20.60
2018-06-24T00:16:25.901Z,10.20
2018-06-24T00:17:25.940Z,8.50
2018-06-24T00:18:25.984Z,10.10
2018-06-24T00:19:26.013Z,8.90
2018-06-24T00:20:26.051Z,7.00
2018-06-24T00:21:26.089Z,9.20
2018-06-24T00:22:26.128Z,9.40
2018-06-24T00:23:26.172Z,8.00
2018-06-24T00:24:26.203Z,11.80
2018-06-24T00:25:26.251Z,16.00
2018-06-24T00:26:26.278Z,17.20
2018-06-24T00:27:26.322Z,12.90
2018-06-24T00:28:26.352Z,21.60
2018-06-24T00:29:26.396Z,18.00
2018-06-24T00:30:26.427Z,21.20
2018-06-24T00:31:26.464Z,21.90
2018-06-24T00:32:26.502Z,21.70
2018-06-24T00:33:26.538Z,19.70
2018-06-24T00:34:26.576Z,16.90
2018-06-24T00:35:26.620Z,8.60
2018-06-24T00:36:26.653Z,12.80
2018-06-24T00:37:26.689Z,11.20
2018-06-24T00:38:26.734Z,13.40
2018-06-24T00:39:26.764Z,10.60
2018-06-24T00:40:26.801Z,11.20
2018-06-24T00:41:26.839Z,11.60
2018-06-24T00:42:26.878Z,8.90
2018-06-24T00:43:26.912Z,10.00
2018-06-24T00:44:26.952Z,8.80
2018-06-24T00:45:27.036Z,9.20
2018-06-24T00:46:27.026Z,8.50
2018-06-24T00:47:27.065Z,8.30
2018-06-24T00:48:27.100Z,9.20
2018-06-24T00:49:27.138Z,7.40
2018-06-24T00:50:27.176Z,6.60
2018-06-24T00:51:27.213Z,9.40
2018-06-24T00:52:27.250Z,8.80
2018-06-24T00:53:27.287Z,11.80
2018-06-24T00:54:27.325Z,8.60
2018-06-24T00:55:27.362Z,8.60
2018-06-24T00:56:27.400Z,9.30
2018-06-24T00:57:27.444Z,8.10
2018-06-24T00:58:27.475Z,10.40
2018-06-24T00:59:27.520Z,13.60
2018-06-24T01:00:27.548Z,9.50
2018-06-24T01:01:27.587Z,10.80
2018-06-24T01:02:27.623Z,8.60
2018-06-24T01:03:27.660Z,10.80
2018-06-24T01:04:27.697Z,9.10
2018-06-24T01:05:27.734Z,6.80
2018-06-24T01:06:27.772Z,7.90
2018-06-24T01:07:27.811Z,8.90
2018-06-24T01:08:27.846Z,5.70
2018-06-24T01:09:27.883Z,8.10
2018-06-24T01:10:27.925Z,11.60
2018-06-24T01:11:27.957Z,10.40
2018-06-24T01:12:27.995Z,12.60
2018-06-24T01:13:28.034Z,7.80
2018-06-24T01:14:28.072Z,10.70
2018-06-24T01:15:28.108Z,7.90
2018-06-24T01:16:28.155Z,8.30
2018-06-24T01:17:28.182Z,5.60
2018-06-24T01:18:28.220Z,7.20
2018-06-24T01:19:28.258Z,7.40
2018-06-24T01:20:28.294Z,7.30
2018-06-24T01:21:28.332Z,6.30
2018-06-24T01:22:28.376Z,6.40
2018-06-24T01:23:28.410Z,8.90
2018-06-24T01:24:28.443Z,8.80
2018-06-24T01:25:28.481Z,8.30
2018-06-24T01:26:28.520Z,5.70
2018-06-24T01:27:28.564Z,7.50
2018-06-24T01:28:28.593Z,6.70
2018-06-24T01:29:28.639Z,9.30
2018-06-24T01:30:28.676Z,6.80
2018-06-24T01:31:28.705Z,7.00
2018-06-24T01:32:28.743Z,6.90
2018-06-24T01:33:28.779Z,7.90
2018-06-24T01:34:28.817Z,7.00
2018-06-24T01:35:28.857Z,7.80
2018-06-24T01:36:28.901Z,8.50
2018-06-24T01:37:28.927Z,7.60
2018-06-24T01:38:28.968Z,7.10
2018-06-24T01:39:29.002Z,7.00
2018-06-24T01:40:29.040Z,6.80
2018-06-24T01:41:29.080Z,6.00
2018-06-24T01:42:29.123Z,6.70
2018-06-24T01:43:29.152Z,9.70
2018-06-24T01:44:29.193Z,8.60
2018-06-24T01:45:29.227Z,13.00
2018-06-24T01:46:29.267Z,11.50
2018-06-24T01:47:29.361Z,8.40
2018-06-24T01:48:29.338Z,8.60
2018-06-24T01:49:29.377Z,8.20
2018-06-24T01:50:29.414Z,6.90
2018-06-24T01:51:29.450Z,8.00
2018-06-24T01:52:29.490Z,9.70
2018-06-24T01:53:29.525Z,5.60
2018-06-24T01:54:29.563Z,7.80
2018-06-24T01:55:29.598Z,8.10
2018-06-24T01:56:29.639Z,8.30
2018-06-24T01:57:29.674Z,6.80
2018-06-24T01:58:29.713Z,9.10
2018-06-24T01:59:29.748Z,7.60
2018-06-24T02:00:29.786Z,7.30
2018-06-24T02:01:29.821Z,7.50
2018-06-24T02:02:29.860Z,7.30
2018-06-24T02:03:29.897Z,8.20
2018-06-24T02:04:29.935Z,7.70
2018-06-24T02:05:29.972Z,7.50
2018-06-24T02:06:30.008Z,8.90
2018-06-24T02:07:30.047Z,7.40
2018-06-24T02:08:30.082Z,8.50
2018-06-24T02:09:30.117Z,6.60
2018-06-24T02:10:30.158Z,10.80
2018-06-24T02:11:30.192Z,8.20
2018-06-24T02:12:30.229Z,7.40
2018-06-24T02:13:30.267Z,8.70
2018-06-24T02:14:30.303Z,7.00
2018-06-24T02:15:30.340Z,7.30
2018-06-24T02:16:30.377Z,7.90
2018-06-24T02:17:30.419Z,8.80
2018-06-24T02:18:30.461Z,8.40
2018-06-24T02:19:30.489Z,10.30
2018-06-24T02:20:30.525Z,9.00
2018-06-24T02:21:30.560Z,7.90
2018-06-24T02:22:30.598Z,8.00
2018-06-24T02:23:30.634Z,8.00
2018-06-24T02:24:30.673Z,9.60
2018-06-24T02:25:30.762Z,6.90
2018-06-24T02:26:30.747Z,9.70
2018-06-24T02:27:30.782Z,7.80
2018-06-24T02:28:30.821Z,8.20
2018-06-24T02:29:30.863Z,9.70
2018-06-24T02:30:30.897Z,7.80
2018-06-24T02:31:30.930Z,10.20
2018-06-24T02:32:30.968Z,8.20
2018-06-24T02:33:31.003Z,9.10
2018-06-24T02:34:31.044Z,8.90
2018-06-24T02:35:31.077Z,6.90
2018-06-24T02:36:31.118Z,7.30
2018-06-24T02:37:31.154Z,9.80
2018-06-24T02:38:31.188Z,11.20
2018-06-24T02:39:31.232Z,8.30
2018-06-24T02:40:31.258Z,8.30
2018-06-24T02:41:31.296Z,11.60
2018-06-24T02:42:31.331Z,22.70
2018-06-24T02:43:31.375Z,20.90
2018-06-24T02:44:31.416Z,16.60
2018-06-24T02:45:31.441Z,14.70
2018-06-24T02:46:31.476Z,13.00
2018-06-24T02:47:31.513Z,15.90
2018-06-24T02:48:31.551Z,35.30
2018-06-24T02:49:31.586Z,28.80
2018-06-24T02:50:31.622Z,19.30
2018-06-24T02:51:31.660Z,16.80
2018-06-24T02:52:31.694Z,14.30
2018-06-24T02:53:31.786Z,9.90
2018-06-24T02:54:31.768Z,7.30
2018-06-24T02:55:31.803Z,10.10
2018-06-24T02:56:31.840Z,8.40
2018-06-24T02:57:31.886Z,10.70
2018-06-24T02:58:31.914Z,9.80
2018-06-24T02:59:31.949Z,23.00
2018-06-24T03:00:31.984Z,22.70
2018-06-24T03:01:32.022Z,18.80
2018-06-24T03:02:32.058Z,20.20
2018-06-24T03:03:32.094Z,14.40
2018-06-24T03:04:32.133Z,11.20
2018-06-24T03:05:32.175Z,17.10
2018-06-24T03:06:32.212Z,17.30
2018-06-24T03:07:32.240Z,18.10
2018-06-24T03:08:32.281Z,15.90
2018-06-24T03:09:32.310Z,23.80
2018-06-24T03:10:32.345Z,14.70
2018-06-24T03:11:32.381Z,10.70
2018-06-24T03:12:32.425Z,9.80
2018-06-24T03:13:32.454Z,19.20
2018-06-24T03:14:32.489Z,16.20
2018-06-24T03:15:32.523Z,13.70
2018-06-24T03:16:32.562Z,15.90
2018-06-24T03:17:32.597Z,14.50
2018-06-24T03:18:32.639Z,14.20
2018-06-24T03:19:32.668Z,12.50
2018-06-24T03:20:32.702Z,8.60
2018-06-24T03:21:32.739Z,11.40
2018-06-24T03:22:32.776Z,12.30
2018-06-24T03:23:32.809Z,11.90
2018-06-24T03:24:32.848Z,12.70
2018-06-24T03:25:32.883Z,18.00
2018-06-24T03:26:32.917Z,15.80
2018-06-24T03:27:32.952Z,15.90
2018-06-24T03:28:32.990Z,12.00
2018-06-24T03:29:33.034Z,11.00
2018-06-24T03:30:33.061Z,13.00
2018-06-24T03:31:33.096Z,12.50
2018-06-24T03:32:33.136Z,16.60
2018-06-24T03:33:33.168Z,12.60
2018-06-24T03:34:33.205Z,10.90
2018-06-24T03:35:33.240Z,14.90
2018-06-24T03:36:33.276Z,16.80
2018-06-24T03:37:33.311Z,14.50
2018-06-24T03:38:33.348Z,21.40
2018-06-24T03:39:33.390Z,23.60
2018-06-24T03:40:33.420Z,27.90
2018-06-24T03:41:33.455Z,10.10
2018-06-24T03:42:33.491Z,9.60
2018-06-24T03:43:33.526Z,13.40
2018-06-24T03:44:33.562Z,11.10
2018-06-24T03:45:33.599Z,13.00
2018-06-24T03:46:33.635Z,11.40
2018-06-24T03:47:33.668Z,13.90
2018-06-24T03:48:33.705Z,14.40
2018-06-24T03:49:33.740Z,13.50
2018-06-24T03:50:33.777Z,12.50
2018-06-24T03:51:33.810Z,12.00
2018-06-24T03:52:33.847Z,11.50
2018-06-24T03:53:33.890Z,12.70
2018-06-24T03:54:33.919Z,18.60
2018-06-24T03:55:33.953Z,21.20
2018-06-24T03:56:34.001Z,21.50
2018-06-24T03:57:34.025Z,14.10
2018-06-24T03:58:34.064Z,12.40
2018-06-24T03:59:34.097Z,7.20
2018-06-24T04:00:34.133Z,10.00
2018-06-24T04:01:34.171Z,9.50
2018-06-24T04:02:34.205Z,11.50
2018-06-24T04:03:34.240Z,9.80
2018-06-24T04:04:34.276Z,10.00
2018-06-24T04:05:34.312Z,11.30
2018-06-24T04:06:34.349Z,19.80
2018-06-24T04:07:34.384Z,15.10
2018-06-24T04:08:34.421Z,15.20
2018-06-24T04:09:34.463Z,10.60
2018-06-24T04:10:34.492Z,9.30
2018-06-24T04:11:34.535Z,9.90
2018-06-24T04:12:34.562Z,10.70
2018-06-24T04:13:34.600Z,9.20
2018-06-24T04:14:34.635Z,9.20
2018-06-24T04:15:34.671Z,9.50
2018-06-24T04:16:34.709Z,10.60
2018-06-24T04:17:34.743Z,10.10
2018-06-24T04:18:34.779Z,11.00
2018-06-24T04:19:34.813Z,9.90
2018-06-24T04:20:34.849Z,11.40
2018-06-24T04:21:34.885Z,11.80
2018-06-24T04:22:34.921Z,8.60
2018-06-24T04:23:34.958Z,7.40
2018-06-24T04:24:34.993Z,7.90
2018-06-24T04:25:35.036Z,8.60
2018-06-24T04:26:35.065Z,8.00
2018-06-24T04:27:35.101Z,10.90
2018-06-24T04:28:35.138Z,9.10
2018-06-24T04:29:35.176Z,10.60
2018-06-24T04:30:35.210Z,9.90
2018-06-24T04:31:35.245Z,11.60
2018-06-24T04:32:35.282Z,8.80
2018-06-24T04:33:35.319Z,13.50
2018-06-24T04:34:35.355Z,11.20
2018-06-24T04:35:35.390Z,9.50
2018-06-24T04:36:35.427Z,11.20
2018-06-24T04:37:35.462Z,10.30
2018-06-24T04:38:35.501Z,14.20
2018-06-24T04:39:35.533Z,27.50
2018-06-24T04:40:35.572Z,26.10
2018-06-24T04:41:35.612Z,12.70
2018-06-24T04:42:35.645Z,8.60
2018-06-24T04:43:35.681Z,7.80
2018-06-24T04:44:35.718Z,7.90
2018-06-24T04:45:35.759Z,9.00
2018-06-24T04:46:35.790Z,7.30
2018-06-24T04:47:35.830Z,8.10
2018-06-24T04:48:35.863Z,7.60
2018-06-24T04:49:35.900Z,10.10
2018-06-24T04:50:35.946Z,6.90
2018-06-24T04:51:35.997Z,7.30
2018-06-24T04:52:36.011Z,9.20
2018-06-24T04:53:36.060Z,11.40
2018-06-24T04:54:36.082Z,10.20
2018-06-24T04:55:36.122Z,11.50
2018-06-24T04:56:36.154Z,8.50
2018-06-24T04:57:36.191Z,16.20
2018-06-24T04:58:36.229Z,20.30
2018-06-24T04:59:36.264Z,27.90
2018-06-24T05:00:36.306Z,46.30
2018-06-24T05:01:36.338Z,16.00
2018-06-24T05:02:36.382Z,13.10
2018-06-24T05:03:36.412Z,13.70
2018-06-24T05:04:36.450Z,10.30
2018-06-24T05:05:36.486Z,19.30
2018-06-24T05:06:36.551Z,8.10
2018-06-24T05:07:36.561Z,6.10
2018-06-24T05:08:36.597Z,10.10
2018-06-24T05:09:36.635Z,7.50
2018-06-24T05:10:36.672Z,7.60
2018-06-24T05:11:36.709Z,7.40
2018-06-24T05:12:36.746Z,6.60
2018-06-24T05:13:36.784Z,5.90
2018-06-24T05:14:36.821Z,10.40
2018-06-24T05:15:36.859Z,8.60
2018-06-24T05:16:36.896Z,5.50
2018-06-24T05:17:36.934Z,5.20
2018-06-24T05:18:36.981Z,8.30
2018-06-24T05:19:37.013Z,7.70
2018-06-24T05:20:37.047Z,7.90
2018-06-24T05:21:37.087Z,9.50
2018-06-24T05:22:37.121Z,22.00
2018-06-24T05:23:37.158Z,18.60
2018-06-24T05:24:37.197Z,8.00
2018-06-24T05:25:37.235Z,10.70
2018-06-24T05:26:37.271Z,10.80
2018-06-24T05:27:37.366Z,16.30
2018-06-24T05:28:37.347Z,13.90
2018-06-24T05:29:37.385Z,6.50
2018-06-24T05:30:37.423Z,8.70
2018-06-24T05:31:37.466Z,6.40
2018-06-24T05:32:37.497Z,7.90
2018-06-24T05:33:37.536Z,5.60
2018-06-24T05:34:37.574Z,7.20
2018-06-24T05:35:37.613Z,7.00
2018-06-24T05:36:37.649Z,7.90
2018-06-24T05:37:37.692Z,6.10
2018-06-24T05:38:37.727Z,8.70
2018-06-24T05:39:37.767Z,9.70
2018-06-24T05:40:37.802Z,7.70
2018-06-24T05:41:37.841Z,8.50
2018-06-24T05:42:37.880Z,8.00
2018-06-24T05:43:37.918Z,7.70
2018-06-24T05:44:37.964Z,5.40
2018-06-24T05:45:37.994Z,9.30
2018-06-24T05:46:38.034Z,6.10
2018-06-24T05:47:38.071Z,8.00
2018-06-24T05:48:38.109Z,6.90
2018-06-24T05:49:38.147Z,8.40
2018-06-24T05:50:38.185Z,6.60
2018-06-24T05:51:38.225Z,6.50
2018-06-24T05:52:38.270Z,6.50
2018-06-24T05:53:38.301Z,5.90
2018-06-24T05:54:38.341Z,10.40
2018-06-24T05:55:38.376Z,10.80
2018-06-24T05:56:38.422Z,5.90
2018-06-24T05:57:38.455Z,7.10
2018-06-24T05:58:38.496Z,6.10
2018-06-24T05:59:38.530Z,6.30
2018-06-24T06:00:38.574Z,18.30
2018-06-24T06:01:38.608Z,8.10
2018-06-24T06:02:38.647Z,7.80
2018-06-24T06:03:38.689Z,9.20
2018-06-24T06:04:38.740Z,13.60
2018-06-24T06:05:38.763Z,11.70
2018-06-24T06:06:38.806Z,11.40
2018-06-24T06:07:38.848Z,6.70
2018-06-24T06:08:38.880Z,6.10
2018-06-24T06:09:38.920Z,7.00
2018-06-24T06:10:38.957Z,5.90
2018-06-24T06:11:39.000Z,6.90
2018-06-24T06:12:39.034Z,7.80
2018-06-24T06:13:39.075Z,8.20
2018-06-24T06:14:39.111Z,5.10
2018-06-24T06:15:39.152Z,6.60
2018-06-24T06:16:39.197Z,6.00
2018-06-24T06:17:39.230Z,11.00
2018-06-24T06:18:39.270Z,6.70
2018-06-24T06:19:39.318Z,9.30
2018-06-24T06:20:39.349Z,7.80
2018-06-24T06:21:39.444Z,7.10
2018-06-24T06:22:39.428Z,10.50
2018-06-24T06:23:39.464Z,21.00
2018-06-24T06:24:39.503Z,11.70
2018-06-24T06:25:39.543Z,6.20
2018-06-24T06:26:39.581Z,6.80
2018-06-24T06:27:39.621Z,7.80
2018-06-24T06:28:39.660Z,8.70
2018-06-24T06:29:39.700Z,7.00
2018-06-24T06:30:39.738Z,7.10
2018-06-24T06:31:39.777Z,8.30
2018-06-24T06:32:39.817Z,8.40
2018-06-24T06:33:39.859Z,7.20
2018-06-24T06:34:39.899Z,6.00
2018-06-24T06:35:39.938Z,5.40
2018-06-24T06:36:39.977Z,12.50
2018-06-24T06:37:40.019Z,6.20
2018-06-24T06:38:40.056Z,6.80
2018-06-24T06:39:40.098Z,8.80
2018-06-24T06:40:40.139Z,8.40
2018-06-24T06:41:40.176Z,7.70
2018-06-24T06:42:40.222Z,8.10
2018-06-24T06:43:40.257Z,7.00
2018-06-24T06:44:40.310Z,7.20
2018-06-24T06:45:40.473Z,7.40
2018-06-24T06:46:40.378Z,7.50
2018-06-24T06:47:40.420Z,6.30
2018-06-24T06:48:40.455Z,6.50
2018-06-24T06:49:40.503Z,8.30
2018-06-24T06:50:40.539Z,5.90
2018-06-24T06:51:40.575Z,4.60
2018-06-24T06:52:40.617Z,6.00
2018-06-24T06:53:40.666Z,5.70
2018-06-24T06:54:40.697Z,6.40
2018-06-24T06:55:40.737Z,5.90
2018-06-24T06:56:40.777Z,7.40
2018-06-24T06:57:40.818Z,26.90
2018-06-24T06:58:40.856Z,8.30
2018-06-24T06:59:40.896Z,8.70
2018-06-24T07:00:40.943Z,6.40
2018-06-24T07:01:40.977Z,9.20
2018-06-24T07:02:41.027Z,7.80
2018-06-24T07:03:41.058Z,6.20
2018-06-24T07:04:41.099Z,8.70
2018-06-24T07:05:41.190Z,7.50
2018-06-24T07:06:41.179Z,5.60
2018-06-24T07:07:41.219Z,5.00
2018-06-24T07:08:41.260Z,6.20
2018-06-24T07:09:41.302Z,5.90
2018-06-24T07:10:41.345Z,7.40
2018-06-24T07:11:41.382Z,5.70
2018-06-24T07:12:41.423Z,7.30
2018-06-24T07:13:41.464Z,6.20
2018-06-24T07:14:41.505Z,6.30
2018-06-24T07:15:41.546Z,6.40
2018-06-24T07:16:41.585Z,6.70
2018-06-24T07:17:41.626Z,7.00
2018-06-24T07:18:41.669Z,6.60
2018-06-24T07:19:41.709Z,6.40
2018-06-24T07:20:41.748Z,6.60
2018-06-24T07:21:41.790Z,8.30
2018-06-24T07:22:41.834Z,5.80
2018-06-24T07:23:41.877Z,5.50
2018-06-24T07:24:41.914Z,7.20
2018-06-24T07:25:41.957Z,5.70
2018-06-24T07:26:41.995Z,6.00
2018-06-24T07:27:42.038Z,6.80
2018-06-24T07:28:42.082Z,7.00
2018-06-24T07:29:42.114Z,6.30
2018-06-24T07:30:42.157Z,6.30
2018-06-24T07:31:42.194Z,5.90
2018-06-24T07:32:42.238Z,8.50
2018-06-24T07:33:42.383Z,6.70
2018-06-24T07:34:42.322Z,5.70
2018-06-24T07:35:42.356Z,8.10
2018-06-24T07:36:42.406Z,6.30
2018-06-24T07:37:42.438Z,6.20
2018-06-24T07:38:42.480Z,10.80
2018-06-24T07:39:42.519Z,7.80
2018-06-24T07:40:42.570Z,7.90
2018-06-24T07:41:42.599Z,6.90
2018-06-24T07:42:42.641Z,7.80
2018-06-24T07:43:42.680Z,6.20
2018-06-24T07:44:42.720Z,5.90
2018-06-24T07:45:42.768Z,6.20
2018-06-24T07:46:42.800Z,7.80
2018-06-24T07:47:42.840Z,6.90
2018-06-24T07:48:42.890Z,8.60
2018-06-24T07:49:42.920Z,6.30
2018-06-24T07:50:42.963Z,9.00
2018-06-24T07:51:43.005Z,8.40
2018-06-24T07:52:43.042Z,7.20
2018-06-24T07:53:43.083Z,8.00
2018-06-24T07:54:43.125Z,7.30
2018-06-24T07:55:43.164Z,6.30
2018-06-24T07:56:43.205Z,6.50
2018-06-24T07:57:43.246Z,7.90
2018-06-24T07:58:43.285Z,6.30
2018-06-24T07:59:43.332Z,7.80
2018-06-24T08:00:43.368Z,8.80
2018-06-24T08:01:43.407Z,7.90
2018-06-24T08:02:43.447Z,6.90
2018-06-24T08:03:43.489Z,7.30
2018-06-24T08:04:43.530Z,6.40
2018-06-24T08:05:43.569Z,7.70
2018-06-24T08:06:43.613Z,8.30
2018-06-24T08:07:43.651Z,7.00
2018-06-24T08:08:43.692Z,6.10
2018-06-24T08:09:43.734Z,6.90
2018-06-24T08:10:43.776Z,8.30
2018-06-24T08:11:43.823Z,10.50
2018-06-24T08:12:43.854Z,8.20
2018-06-24T08:13:43.896Z,6.80
2018-06-24T08:14:43.936Z,7.70
2018-06-24T08:15:43.978Z,7.50
2018-06-24T08:16:44.019Z,6.30
2018-06-24T08:17:44.059Z,6.20
2018-06-24T08:18:44.101Z,6.50
2018-06-24T08:19:44.150Z,10.00
2018-06-24T08:20:44.197Z,8.90
2018-06-24T08:21:44.223Z,8.80
2018-06-24T08:22:44.320Z,7.60
2018-06-24T08:23:44.305Z,6.00
2018-06-24T08:24:44.348Z,8.10
2018-06-24T08:25:44.391Z,6.50
2018-06-24T08:26:44.429Z,6.50
2018-06-24T08:27:44.475Z,5.50
2018-06-24T08:28:44.508Z,8.50
2018-06-24T08:29:44.552Z,5.60
2018-06-24T08:30:44.594Z,7.50
2018-06-24T08:31:44.700Z,6.80
2018-06-24T08:32:44.682Z,6.90
2018-06-24T08:33:44.712Z,7.50
2018-06-24T08:34:44.752Z,9.50
2018-06-24T08:35:44.792Z,10.00
2018-06-24T08:36:44.833Z,7.50
2018-06-24T08:37:44.883Z,7.50
2018-06-24T08:38:44.916Z,7.90
2018-06-24T08:39:44.958Z,6.60
2018-06-24T08:40:44.996Z,7.20
2018-06-24T08:41:45.048Z,6.60
2018-06-24T08:42:45.080Z,6.90
2018-06-24T08:43:45.119Z,6.90
2018-06-24T08:44:45.164Z,7.20
2018-06-24T08:45:45.201Z,7.20
2018-06-24T08:46:45.241Z,6.50
2018-06-24T08:47:45.291Z,8.00
2018-06-24T08:48:45.323Z,7.40
2018-06-24T08:49:45.363Z,7.10
2018-06-24T08:50:45.406Z,6.90
2018-06-24T08:51:45.446Z,6.20
2018-06-24T08:52:45.485Z,7.60
2018-06-24T08:53:45.524Z,7.70
2018-06-24T08:54:45.567Z,7.30
2018-06-24T08:55:45.608Z,6.50
2018-06-24T08:56:45.655Z,5.40
2018-06-24T08:57:45.707Z,9.20
2018-06-24T08:58:45.729Z,5.90
2018-06-24T08:59:45.770Z,7.30
2018-06-24T09:00:45.819Z,6.70
2018-06-24T09:01:45.848Z,6.90
2018-06-24T09:02:45.893Z,4.90
2018-06-24T09:03:45.928Z,6.20
2018-06-24T09:04:45.969Z,5.80
2018-06-24T09:05:46.014Z,7.50
2018-06-24T09:06:46.052Z,7.30
2018-06-24T09:07:46.090Z,5.70
2018-06-24T09:08:46.130Z,5.90
2018-06-24T09:09:46.175Z,7.60
2018-06-24T09:10:46.227Z,5.80
2018-06-24T09:11:46.255Z,5.60
2018-06-24T09:12:46.294Z,7.00
2018-06-24T09:13:46.334Z,8.60
2018-06-24T09:14:46.375Z,5.00
2018-06-24T09:15:46.418Z,5.80
2018-06-24T09:16:46.456Z,5.70
2018-06-24T09:17:46.501Z,5.20
2018-06-24T09:18:46.550Z,5.20
2018-06-24T09:19:46.579Z,6.40
2018-06-24T09:20:46.617Z,3.80
2018-06-24T09:21:46.658Z,5.60
2018-06-24T09:22:46.701Z,5.60
2018-06-24T09:23:46.740Z,5.70
2018-06-24T09:24:46.790Z,6.70
2018-06-24T09:25:46.820Z,8.00
2018-06-24T09:26:46.862Z,6.00
2018-06-24T09:27:46.900Z,6.00
2018-06-24T09:28:46.940Z,6.50
2018-06-24T09:29:46.981Z,5.90
2018-06-24T09:30:47.046Z,6.40
2018-06-24T09:31:47.064Z,6.30
2018-06-24T09:32:47.104Z,6.20
2018-06-24T09:33:47.145Z,5.70
2018-06-24T09:34:47.205Z,5.80
2018-06-24T09:35:47.237Z,4.50
2018-06-24T09:36:47.267Z,7.50
2018-06-24T09:37:47.306Z,5.70
2018-06-24T09:38:47.346Z,5.40
2018-06-24T09:39:47.392Z,5.10
2018-06-24T09:40:47.428Z,4.60
2018-06-24T09:41:47.478Z,5.50
2018-06-24T09:42:47.512Z,6.70
2018-06-24T09:43:47.553Z,5.10
2018-06-24T09:44:47.591Z,4.90
2018-06-24T09:45:47.635Z,6.20
2018-06-24T09:46:47.677Z,6.60
2018-06-24T09:47:47.721Z,5.20
2018-06-24T09:48:47.757Z,5.70
2018-06-24T09:49:47.798Z,5.20
2018-06-24T09:50:47.841Z,5.80
2018-06-24T09:51:47.880Z,5.00
2018-06-24T09:52:47.943Z,5.30
2018-06-24T09:53:47.965Z,5.40
2018-06-24T09:54:48.005Z,6.90
2018-06-24T09:55:48.046Z,8.40
2018-06-24T09:56:48.087Z,5.10
2018-06-24T09:57:48.128Z,4.90
2018-06-24T09:58:48.170Z,7.00
2018-06-24T09:59:48.211Z,4.70
2018-06-24T10:00:48.275Z,5.80
2018-06-24T10:01:48.294Z,5.50
2018-06-24T10:02:48.335Z,5.60
2018-06-24T10:03:48.375Z,5.70
2018-06-24T10:04:48.417Z,5.10
2018-06-24T10:05:48.463Z,6.20
2018-06-24T10:06:48.499Z,5.70
2018-06-24T10:07:48.544Z,4.10
2018-06-24T10:08:48.583Z,5.20
2018-06-24T10:09:48.624Z,5.60
2018-06-24T10:10:48.672Z,5.50
2018-06-24T10:11:48.709Z,6.70
2018-06-24T10:12:48.761Z,5.10
2018-06-24T10:13:48.806Z,4.80
2018-06-24T10:14:48.830Z,5.20
2018-06-24T10:15:48.870Z,7.10
2018-06-24T10:16:48.925Z,5.50
2018-06-24T10:17:48.957Z,5.70
2018-06-24T10:18:49.000Z,4.80
2018-06-24T10:19:49.044Z,5.90
2018-06-24T10:20:49.087Z,5.30
2018-06-24T10:21:49.138Z,7.60
2018-06-24T10:22:49.170Z,7.00
2018-06-24T10:23:49.224Z,6.30
2018-06-24T10:24:49.256Z,6.30
2018-06-24T10:25:49.294Z,4.30
2018-06-24T10:26:49.341Z,7.30
2018-06-24T10:27:49.379Z,7.00
2018-06-24T10:28:49.423Z,5.00
2018-06-24T10:29:49.459Z,6.90
2018-06-24T10:30:49.569Z,5.20
2018-06-24T10:31:49.546Z,6.40
2018-06-24T10:32:49.584Z,5.30
2018-06-24T10:33:49.628Z,5.80
2018-06-24T10:34:49.682Z,5.50
2018-06-24T10:35:49.711Z,5.40
2018-06-24T10:36:49.752Z,7.90
2018-06-24T10:37:49.796Z,3.30
2018-06-24T10:38:49.973Z,4.90
2018-06-24T10:39:49.934Z,5.10
2018-06-24T10:40:49.928Z,5.70
2018-06-24T10:41:50.021Z,4.70
2018-06-24T10:42:49.997Z,4.80
2018-06-24T10:43:50.041Z,5.00
2018-06-24T10:44:50.081Z,4.30
2018-06-24T10:45:50.137Z,7.40
2018-06-24T10:46:50.174Z,5.40
2018-06-24T10:47:50.206Z,5.10
2018-06-24T10:48:50.251Z,5.00
2018-06-24T10:49:50.294Z,4.70
2018-06-24T10:50:50.347Z,5.10
2018-06-24T10:51:50.375Z,4.00
2018-06-24T10:52:50.435Z,3.70
2018-06-24T10:53:50.458Z,4.50
2018-06-24T10:54:50.500Z,5.20
2018-06-24T10:55:50.544Z,5.40
2018-06-24T10:56:50.584Z,4.50
2018-06-24T10:57:50.624Z,5.20
2018-06-24T10:58:50.668Z,6.20
2018-06-24T10:59:50.712Z,6.00
2018-06-24T11:00:50.753Z,4.90
2018-06-24T11:01:50.808Z,8.10
2018-06-24T11:02:50.836Z,5.80
2018-06-24T11:03:50.886Z,4.70
2018-06-24T11:04:50.939Z,5.20
2018-06-24T11:05:50.972Z,5.30
2018-06-24T11:06:51.007Z,3.80
2018-06-24T11:07:51.068Z,4.90
2018-06-24T11:08:51.124Z,4.90
2018-06-24T11:09:51.151Z,4.20
2018-06-24T11:10:51.174Z,4.60
2018-06-24T11:11:51.216Z,5.30
2018-06-24T11:12:51.261Z,5.30
2018-06-24T11:13:51.312Z,7.00
2018-06-24T11:14:51.344Z,5.40
2018-06-24T11:15:51.388Z,5.80
2018-06-24T11:16:51.428Z,5.30
2018-06-24T11:17:51.472Z,5.50
2018-06-24T11:18:51.616Z,4.30
2018-06-24T11:19:51.556Z,5.00
2018-06-24T11:20:51.597Z,4.30
2018-06-24T11:21:51.663Z,5.50
2018-06-24T11:22:51.684Z,4.80
2018-06-24T11:23:51.732Z,4.40
2018-06-24T11:24:51.783Z,5.30
2018-06-24T11:25:51.815Z,3.90
2018-06-24T11:26:51.847Z,5.10
2018-06-24T11:27:51.890Z,5.10
2018-06-24T11:28:51.939Z,3.70
2018-06-24T11:29:51.975Z,4.10
2018-06-24T11:30:52.020Z,4.50
2018-06-24T11:31:52.055Z,4.80
2018-06-24T11:32:52.098Z,5.70
2018-06-24T11:33:52.147Z,4.40
2018-06-24T11:34:52.182Z,4.70
2018-06-24T11:35:52.222Z,5.10
2018-06-24T11:36:52.282Z,5.40
2018-06-24T11:37:52.305Z,6.50
2018-06-24T11:38:52.350Z,4.10
2018-06-24T11:39:52.392Z,4.90
2018-06-24T11:40:52.437Z,4.80
2018-06-24T11:41:52.474Z,4.90
2018-06-24T11:42:52.519Z,5.60
2018-06-24T11:43:52.561Z,6.10
2018-06-24T11:44:52.596Z,5.00
2018-06-24T11:45:52.637Z,5.10
2018-06-24T11:46:52.681Z,5.10
2018-06-24T11:47:52.745Z,6.10
2018-06-24T11:48:52.763Z,6.20
2018-06-24T11:49:52.809Z,5.20
2018-06-24T11:50:52.847Z,4.80
2018-06-24T11:51:52.887Z,4.10
2018-06-24T11:52:52.930Z,3.90
2018-06-24T11:53:52.970Z,3.40
2018-06-24T11:54:53.011Z,4.20
2018-06-24T11:55:53.052Z,4.60
2018-06-24T11:56:53.146Z,7.00
2018-06-24T11:57:53.136Z,4.70
2018-06-24T11:58:53.178Z,5.60
2018-06-24T11:59:53.222Z,6.50
2018-06-24T12:00:53.263Z,3.50
2018-06-24T12:01:53.377Z,4.80
2018-06-24T12:02:53.348Z,4.30
2018-06-24T12:03:53.396Z,7.30
2018-06-24T12:04:53.431Z,5.70
2018-06-24T12:05:53.474Z,4.10
2018-06-24T12:06:53.554Z,3.90
2018-06-24T12:07:53.556Z,4.30
2018-06-24T12:08:53.602Z,4.70
2018-06-24T12:09:53.728Z,3.60
2018-06-24T12:10:53.699Z,4.10
2018-06-24T12:11:53.728Z,3.70
2018-06-24T12:12:53.767Z,5.20
2018-06-24T12:13:53.818Z,3.90
2018-06-24T12:14:53.860Z,5.10
2018-06-24T12:15:53.892Z,5.20
2018-06-24T12:16:53.934Z,4.50
2018-06-24T12:17:53.978Z,3.50
2018-06-24T12:18:54.019Z,5.40
2018-06-24T12:19:54.066Z,3.80
2018-06-24T12:20:54.101Z,2.60
2018-06-24T12:21:54.145Z,4.50
2018-06-24T12:22:54.188Z,4.10
2018-06-24T12:23:54.245Z,3.00
2018-06-24T12:24:54.271Z,3.80
2018-06-24T12:25:54.329Z,3.90
2018-06-24T12:26:54.359Z,3.60
2018-06-24T12:27:54.398Z,5.20
2018-06-24T12:28:54.439Z,3.50
2018-06-24T12:29:54.482Z,3.80
2018-06-24T12:30:54.526Z,3.70
2018-06-24T12:31:54.567Z,4.20
2018-06-24T12:32:54.608Z,3.50
2018-06-24T12:33:54.653Z,3.60
2018-06-24T12:34:54.694Z,4.10
2018-06-24T12:35:54.737Z,3.80
2018-06-24T12:36:54.793Z,3.70
2018-06-24T12:37:54.823Z,3.20
2018-06-24T12:38:54.864Z,4.90
2018-06-24T12:39:54.904Z,4.40
2018-06-24T12:40:54.949Z,5.10
2018-06-24T12:41:54.991Z,4.90
2018-06-24T12:42:55.036Z,3.90
2018-06-24T12:43:55.074Z,3.50
2018-06-24T12:44:55.118Z,5.10
2018-06-24T12:45:55.161Z,4.80
2018-06-24T12:46:55.205Z,5.40
2018-06-24T12:47:55.245Z,3.40
2018-06-24T12:48:55.288Z,5.90
2018-06-24T12:49:55.332Z,3.60
2018-06-24T12:50:55.383Z,3.10
2018-06-24T12:51:55.432Z,4.60
2018-06-24T12:52:55.460Z,4.30
2018-06-24T12:53:55.501Z,4.20
2018-06-24T12:54:55.545Z,2.60
2018-06-24T12:55:55.602Z,3.60
2018-06-24T12:56:55.636Z,3.70
2018-06-24T12:57:55.672Z,4.90
2018-06-24T12:58:55.846Z,3.10
2018-06-24T12:59:56.064Z,4.30
2018-06-24T13:00:56.294Z,4.30
2018-06-24T13:01:55.850Z,3.70
2018-06-24T13:02:55.885Z,4.50
2018-06-24T13:03:55.930Z,4.20
2018-06-24T13:04:55.972Z,4.80
2018-06-24T13:05:56.013Z,3.90
2018-06-24T13:06:56.056Z,4.20
2018-06-24T13:07:56.104Z,3.80
2018-06-24T13:08:56.142Z,4.40
2018-06-24T13:09:56.187Z,4.00
2018-06-24T13:10:56.229Z,3.60
2018-06-24T13:11:56.273Z,3.30
2018-06-24T13:12:56.312Z,3.90